Time;durP1;ratioP1;P1;durP2;ratioP2;P2;SDS_P1;SDS_P2;PMS_P1;PMS_P2;Temp;Humidity;BMP_temperature;BMP_pressure;BME280_temperature;BME280_humidity;BME280_pressure;Samples;Min_cycle;Max_cycle;Signal;HPM_P1;HPM_P2
2023/03/05 00:01:09;;;;;;;46.88;15.75;;;;;;;2.18;100.00;99103.56;4946165;28;20027;-74
2023/03/05 00:03:34;;;;;;;44.83;17.42;;;;;;;2.05;100.00;99093.19;4956867;28;20453;-73
2023/03/05 00:06:00;;;;;;;38.10;15.70;;;;;;;2.09;100.00;99094.56;4959636;28;20055;-74
2023/03/05 00:08:26;;;;;;;44.25;17.63;;;;;;;2.17;100.00;99101.84;4947814;28;20027;-73
2023/03/05 00:11:03;;;;;;;41.00;15.93;;;;;;;2.21;100.00;99113.09;4937271;29;20066;-74
2023/03/05 00:13:29;;;;;;;45.10;17.52;;;;;;;2.12;100.00;99094.31;4944511;29;20489;-74
2023/03/05 00:15:54;;;;;;;49.05;17.15;;;;;;;2.05;100.00;99100.34;4964562;28;20129;-74
2023/03/05 00:18:20;;;;;;;44.70;16.27;;;;;;;2.06;100.00;99089.50;4949169;28;20039;-73
2023/03/05 00:20:46;;;;;;;42.88;16.50;;;;;;;2.17;100.00;99091.19;4963895;28;20495;-74
2023/03/05 00:23:11;;;;;;;42.67;16.48;;;;;;;2.27;100.00;99101.84;4966368;28;20030;-73
2023/03/05 00:25:37;;;;;;;43.67;16.05;;;;;;;2.28;100.00;99099.06;4952783;28;20027;-74
2023/03/05 00:28:03;;;;;;;39.95;16.35;;;;;;;2.23;100.00;99093.28;4993972;28;20458;-74
2023/03/05 00:30:29;;;;;;;44.85;17.02;;;;;;;2.24;100.00;99102.13;4943491;28;20023;-73
2023/03/05 00:32:55;;;;;;;42.85;16.67;;;;;;;2.27;100.00;99085.84;4947817;28;20039;-74
2023/03/05 00:35:20;;;;;;;41.58;17.15;;;;;;;2.18;100.00;99084.88;4967557;28;20033;-74
2023/03/05 00:37:45;;;;;;;54.33;17.30;;;;;;;2.13;100.00;99085.28;4951352;28;20491;-74
2023/03/05 00:40:11;;;;;;;54.85;17.77;;;;;;;2.10;100.00;99077.59;4948124;28;20122;-74
2023/03/05 00:42:37;;;;;;;47.45;16.88;;;;;;;2.24;100.00;99080.78;4951085;28;20019;-74
2023/03/05 00:45:07;;;;;;;45.80;17.55;;;;;;;2.26;100.00;99086.81;4969521;28;20127;-74
2023/03/05 00:47:33;;;;;;;43.17;17.25;;;;;;;2.12;100.00;99080.97;4994393;28;20046;-73
2023/03/05 00:49:59;;;;;;;43.47;18.27;;;;;;;2.06;100.00;99075.34;4943202;29;20042;-74
2023/03/05 00:52:24;;;;;;;46.13;17.30;;;;;;;2.00;100.00;99079.41;4950587;29;20027;-74
2023/03/05 00:54:49;;;;;;;49.65;18.20;;;;;;;2.02;100.00;99085.47;4952777;28;20572;-74
2023/03/05 00:57:15;;;;;;;46.42;17.85;;;;;;;1.96;100.00;99068.19;4989799;28;20034;-73
2023/03/05 00:59:40;;;;;;;53.70;18.65;;;;;;;2.06;100.00;99084.16;4952602;28;20030;-79
2023/03/05 01:02:06;;;;;;;40.80;16.73;;;;;;;2.00;100.00;99074.06;4953243;28;20034;-75
2023/03/05 01:04:31;;;;;;;50.47;19.40;;;;;;;2.03;100.00;99083.63;4956543;28;20023;-75
2023/03/05 01:06:58;;;;;;;46.47;16.83;;;;;;;2.02;100.00;99073.91;4947589;28;20084;-74
2023/03/05 01:09:26;;;;;;;45.75;17.75;;;;;;;1.87;100.00;99047.69;4939530;28;20405;-75
2023/03/05 01:11:52;;;;;;;44.50;16.35;;;;;;;1.98;100.00;99070.69;4947836;28;20440;-75
2023/03/05 01:14:18;;;;;;;53.63;17.38;;;;;;;2.02;100.00;99065.91;4948950;29;20027;-75
2023/03/05 01:16:43;;;;;;;41.17;16.25;;;;;;;2.11;100.00;99071.25;4945412;28;20512;-75
2023/03/05 01:19:09;;;;;;;49.63;18.73;;;;;;;2.09;100.00;99072.38;4951513;28;20032;-75
2023/03/05 01:21:36;;;;;;;45.92;17.42;;;;;;;2.01;100.00;99069.56;4946451;29;20118;-75
2023/03/05 01:24:02;;;;;;;47.30;17.15;;;;;;;1.92;100.00;99058.78;4956492;28;20037;-75
2023/03/05 01:26:27;;;;;;;49.50;17.70;;;;;;;1.87;100.00;99042.34;4960925;28;20031;-76
2023/03/05 01:28:52;;;;;;;45.83;17.92;;;;;;;1.88;100.00;99036.03;4959518;28;20613;-75
2023/03/05 01:31:18;;;;;;;50.53;18.35;;;;;;;1.83;100.00;99040.94;4970294;28;20042;-76
2023/03/05 01:33:44;;;;;;;45.00;18.35;;;;;;;1.83;100.00;99026.75;4962539;29;20043;-76
2023/03/05 01:36:14;;;;;;;49.53;19.77;;;;;;;1.94;100.00;99046.13;4963124;28;20031;-75
2023/03/05 01:38:41;;;;;;;55.55;19.15;;;;;;;1.91;100.00;99033.09;4954107;28;20058;-75
2023/03/05 01:41:08;;;;;;;50.88;18.15;;;;;;;1.98;100.00;99036.84;4948105;29;20023;-75
2023/03/05 01:43:33;;;;;;;48.28;20.17;;;;;;;1.94;100.00;99022.13;4952285;29;20447;-75
2023/03/05 01:46:21;;;;;;;58.33;18.75;;;;;;;2.04;100.00;99035.44;4952403;28;20035;-74
2023/03/05 01:48:51;;;;;;;47.20;18.77;;;;;;;2.04;100.00;99034.59;4962975;28;20534;-76
2023/03/05 01:51:19;;;;;;;50.90;18.70;;;;;;;2.04;100.00;99030.09;4947681;29;20050;-75
2023/03/05 01:53:45;;;;;;;45.65;17.80;;;;;;;2.01;100.00;99029.53;4945160;28;20484;-75
2023/03/05 01:56:11;;;;;;;46.00;17.67;;;;;;;2.08;100.00;99023.50;4947145;29;20043;-76
2023/03/05 01:58:38;;;;;;;50.15;18.25;;;;;;;2.08;100.00;99020.00;4946828;28;20037;-75
2023/03/05 02:01:04;;;;;;;42.60;17.27;;;;;;;2.09;100.00;99019.00;4941693;28;20031;-75
2023/03/05 02:03:32;;;;;;;43.75;17.50;;;;;;;2.07;100.00;99021.81;4942605;28;20393;-75
2023/03/05 02:05:57;;;;;;;49.80;18.13;;;;;;;2.11;100.00;99007.19;4946008;29;20047;-75
2023/03/05 02:08:23;;;;;;;48.15;18.15;;;;;;;2.15;100.00;99002.44;4950929;28;20027;-75
2023/03/05 02:10:53;;;;;;;42.63;17.05;;;;;;;2.17;100.00;99009.31;4941007;28;20036;-75
2023/03/05 02:13:24;;;;;;;46.15;17.42;;;;;;;2.04;100.00;99006.06;4952280;29;20400;-75
2023/03/05 02:15:51;;;;;;;44.38;16.33;;;;;;;2.03;100.00;99011.56;4951314;28;20031;-75
2023/03/05 02:18:18;;;;;;;36.30;15.50;;;;;;;2.00;100.00;99010.03;4953400;28;20031;-75
2023/03/05 02:20:47;;;;;;;41.88;16.63;;;;;;;2.03;100.00;99008.91;4942154;28;20028;-75
2023/03/05 02:23:13;;;;;;;43.17;17.45;;;;;;;2.02;100.00;99008.06;4951101;28;20027;-75
2023/03/05 02:25:39;;;;;;;44.97;17.15;;;;;;;2.00;100.00;98994.03;4954167;28;20034;-75
2023/03/05 02:28:15;;;;;;;45.97;16.98;;;;;;;2.13;100.00;98999.88;4952890;28;20392;-75
2023/03/05 02:30:40;;;;;;;44.40;17.25;;;;;;;2.19;100.00;99009.97;4947446;28;20032;-75
2023/03/05 02:33:05;;;;;;;44.40;17.35;;;;;;;2.21;100.00;98999.16;4949651;29;20037;-75
2023/03/05 02:35:31;;;;;;;38.38;15.65;;;;;;;2.15;100.00;98973.06;4953872;29;20033;-75
2023/03/05 02:37:56;;;;;;;46.95;18.30;;;;;;;2.17;100.00;98981.75;4952592;28;20033;-75
2023/03/05 02:40:22;;;;;;;39.10;17.80;;;;;;;2.23;100.00;98994.53;4953903;28;20031;-75
2023/03/05 02:42:47;;;;;;;42.75;16.08;;;;;;;2.07;100.00;98967.59;4949881;28;20028;-75
2023/03/05 02:45:14;;;;;;;45.05;16.65;;;;;;;2.14;100.00;98988.22;4967623;28;20564;-75
2023/03/05 02:47:40;;;;;;;49.85;17.30;;;;;;;2.12;100.00;98981.34;4952679;29;20037;-75
2023/03/05 02:50:07;;;;;;;44.40;16.88;;;;;;;2.12;100.00;98976.88;4987191;28;20102;-75
2023/03/05 02:52:32;;;;;;;49.42;17.63;;;;;;;2.24;100.00;98984.69;4947820;28;20035;-75
2023/03/05 02:54:58;;;;;;;43.22;18.05;;;;;;;2.09;100.00;98938.94;4949506;29;20097;-75
2023/03/05 02:57:23;;;;;;;44.35;16.60;;;;;;;2.18;100.00;98970.94;4951678;28;20114;-75
2023/03/05 02:59:49;;;;;;;47.63;16.88;;;;;;;2.24;100.00;98971.34;4954528;28;20054;-75
2023/03/05 03:02:15;;;;;;;41.50;15.73;;;;;;;2.12;100.00;98962.66;4964816;28;20080;-75
2023/03/05 03:04:41;;;;;;;47.65;16.23;;;;;;;2.19;100.00;98959.25;4941802;28;20023;-75
2023/03/05 03:07:06;;;;;;;40.30;15.73;;;;;;;2.46;100.00;98962.94;4945314;28;20035;-75
2023/03/05 03:09:34;;;;;;;38.75;17.73;;;;;;;2.47;100.00;98953.13;4949004;29;20453;-75
2023/03/05 03:12:00;;;;;;;41.45;16.58;;;;;;;2.30;100.00;98942.22;4966229;28;20682;-75
2023/03/05 03:14:25;;;;;;;48.08;17.83;;;;;;;2.23;100.00;98941.16;4940186;28;20053;-75
2023/03/05 03:16:51;;;;;;;42.95;16.95;;;;;;;2.19;100.00;98940.56;4949570;29;20038;-75
2023/03/05 03:19:16;;;;;;;43.35;16.15;;;;;;;2.24;100.00;98948.16;4944765;29;20397;-76
2023/03/05 03:21:41;;;;;;;39.78;16.15;;;;;;;2.19;100.00;98921.88;4947758;29;20325;-76
2023/03/05 03:24:07;;;;;;;41.55;17.42;;;;;;;2.49;100.00;98940.44;4942242;28;20023;-75
2023/03/05 03:26:32;;;;;;;47.70;16.90;;;;;;;2.35;100.00;98929.25;4968413;28;20042;-75
2023/03/05 03:28:58;;;;;;;46.28;16.15;;;;;;;2.31;100.00;98946.59;4949610;28;20036;-75
2023/03/05 03:31:23;;;;;;;41.10;16.65;;;;;;;2.12;100.00;98941.31;4963474;28;20023;-75
2023/03/05 03:33:49;;;;;;;40.90;16.10;;;;;;;2.11;100.00;98931.63;4951650;28;20418;-75
2023/03/05 03:36:15;;;;;;;44.67;16.60;;;;;;;2.04;100.00;98931.34;4947678;28;20031;-75
2023/03/05 03:38:40;;;;;;;39.45;17.60;;;;;;;2.08;100.00;98930.09;4963117;28;20584;-75
2023/03/05 03:41:07;;;;;;;45.22;16.95;;;;;;;2.13;100.00;98919.81;4962203;28;20114;-75
2023/03/05 03:43:33;;;;;;;44.03;17.10;;;;;;;2.07;100.00;98909.75;4943591;28;20036;-75
2023/03/05 03:45:59;;;;;;;43.47;16.80;;;;;;;2.11;100.00;98929.78;4948192;29;20027;-75
2023/03/05 03:48:24;;;;;;;44.50;17.25;;;;;;;2.09;100.00;98925.59;4986636;28;20038;-75
2023/03/05 03:50:49;;;;;;;46.33;17.25;;;;;;;2.08;100.00;98926.59;4967358;28;20403;-75
2023/03/05 03:53:16;;;;;;;45.63;16.63;;;;;;;1.89;100.00;98906.16;4947454;28;20027;-75
2023/03/05 03:55:43;;;;;;;43.28;16.50;;;;;;;1.96;100.00;98921.44;4958463;28;20093;-75
2023/03/05 03:58:09;;;;;;;50.03;16.23;;;;;;;1.89;100.00;98912.34;4965973;28;20085;-75
2023/03/05 04:00:34;;;;;;;45.45;16.20;;;;;;;1.83;100.00;98910.22;4960442;28;20027;-75
2023/03/05 04:02:59;;;;;;;44.60;15.38;;;;;;;1.81;100.00;98904.22;4954362;28;20105;-75
2023/03/05 04:05:25;;;;;;;41.42;15.95;;;;;;;2.03;100.00;98918.19;4943826;28;20118;-75
2023/03/05 04:07:50;;;;;;;39.80;14.90;;;;;;;1.83;100.00;98891.53;4946875;28;20023;-75
2023/03/05 04:10:16;;;;;;;50.20;16.10;;;;;;;1.91;100.00;98899.69;4959289;28;20073;-75
2023/03/05 04:12:42;;;;;;;47.17;16.75;;;;;;;1.92;100.00;98901.34;4951777;28;20023;-75
2023/03/05 04:15:08;;;;;;;39.92;15.95;;;;;;;1.91;100.00;98888.16;4952322;29;20031;-75
2023/03/05 04:17:34;;;;;;;41.05;17.60;;;;;;;2.02;100.00;98908.47;4952147;28;20042;-75
2023/03/05 04:20:00;;;;;;;44.97;16.45;;;;;;;2.00;100.00;98902.47;4944146;28;20031;-75
2023/03/05 04:22:25;;;;;;;34.55;15.95;;;;;;;1.99;100.00;98898.94;4941934;29;20512;-75
2023/03/05 04:24:50;;;;;;;45.67;16.48;;;;;;;1.83;100.00;98894.22;4952565;28;20114;-75
2023/03/05 04:27:16;;;;;;;44.63;15.57;;;;;;;1.84;100.00;98917.25;4941702;29;20538;-75
2023/03/05 04:29:41;;;;;;;53.17;17.13;;;;;;;1.68;100.00;98885.84;4940380;28;20039;-75
2023/03/05 04:32:06;;;;;;;44.85;17.55;;;;;;;1.96;100.00;98904.56;4944565;28;20031;-75
2023/03/05 04:34:32;;;;;;;39.95;17.15;;;;;;;1.98;100.00;98894.59;4939513;28;20038;-75
2023/03/05 04:36:57;;;;;;;45.85;16.77;;;;;;;1.95;100.00;98894.91;4960610;28;20034;-75
2023/03/05 04:39:23;;;;;;;42.20;16.92;;;;;;;1.98;100.00;98899.94;4939354;29;20063;-75
2023/03/05 04:41:48;;;;;;;50.45;18.50;;;;;;;1.93;100.00;98892.34;4933794;29;20031;-75
2023/03/05 04:44:14;;;;;;;42.08;17.60;;;;;;;1.94;100.00;98890.56;4942000;29;20039;-75
2023/03/05 04:46:40;;;;;;;38.58;16.63;;;;;;;1.94;100.00;98899.41;4968785;28;20054;-75
2023/03/05 04:49:05;;;;;;;47.22;17.42;;;;;;;1.69;100.00;98881.34;4959417;28;20028;-75
2023/03/05 04:51:30;;;;;;;49.83;17.42;;;;;;;1.70;100.00;98883.91;4946152;28;20031;-75
2023/03/05 04:53:56;;;;;;;40.85;17.33;;;;;;;1.90;100.00;98889.16;4951605;28;20030;-75
2023/03/05 04:56:21;;;;;;;44.58;16.65;;;;;;;1.79;100.00;98873.34;4944611;29;20062;-75
2023/03/05 04:58:47;;;;;;;38.58;16.70;;;;;;;1.94;100.00;98904.72;4965714;28;20057;-75
2023/03/05 05:01:12;;;;;;;43.35;16.80;;;;;;;1.89;100.00;98874.97;4962305;28;20035;-75
2023/03/05 05:03:38;;;;;;;44.58;16.38;;;;;;;2.03;100.00;98892.31;4951190;28;20027;-75
2023/03/05 05:06:03;;;;;;;43.85;15.95;;;;;;;2.12;100.00;98885.25;4954971;28;20051;-75
2023/03/05 05:08:28;;;;;;;39.75;16.30;;;;;;;2.05;100.00;98868.19;4966186;28;20034;-75
2023/03/05 05:11:06;;;;;;;52.25;18.15;;;;;;;2.07;100.00;98872.38;4940866;29;20032;-75
2023/03/05 05:13:32;;;;;;;44.80;16.40;;;;;;;2.07;100.00;98882.19;4996766;28;20118;-75
2023/03/05 05:15:57;;;;;;;45.58;17.70;;;;;;;1.95;100.00;98854.88;4952612;28;20105;-75
2023/03/05 05:18:25;;;;;;;40.80;15.68;;;;;;;2.11;100.00;98888.94;4967818;28;20063;-75
2023/03/05 05:20:51;;;;;;;48.22;15.68;;;;;;;2.19;100.00;98876.50;4968005;28;20026;-76
2023/03/05 05:23:16;;;;;;;42.22;17.67;;;;;;;2.10;100.00;98872.09;4971059;28;20019;-76
2023/03/05 05:25:42;;;;;;;44.03;17.30;;;;;;;2.26;100.00;98883.94;4964774;28;20077;-76
2023/03/05 05:28:09;;;;;;;45.17;16.77;;;;;;;2.25;100.00;98885.75;4962618;28;20043;-76
2023/03/05 05:30:34;;;;;;;45.47;16.95;;;;;;;2.22;100.00;98878.06;4962059;28;20023;-76
2023/03/05 05:32:59;;;;;;;45.17;18.20;;;;;;;2.13;100.00;98879.78;4981721;28;20107;-75
2023/03/05 05:35:24;;;;;;;43.20;17.13;;;;;;;2.11;100.00;98863.06;4970674;28;20047;-75
2023/03/05 05:37:50;;;;;;;46.88;17.27;;;;;;;2.06;100.00;98865.34;4963663;28;20043;-74
2023/03/05 05:40:15;;;;;;;42.05;16.48;;;;;;;2.24;100.00;98877.91;4966899;28;20027;-74
2023/03/05 05:42:40;;;;;;;44.17;17.23;;;;;;;2.00;100.00;98857.09;4938010;29;20063;-75
2023/03/05 05:45:06;;;;;;;39.90;16.33;;;;;;;2.14;100.00;98877.94;4947579;29;20038;-75
2023/03/05 05:47:32;;;;;;;52.28;17.58;;;;;;;1.95;100.00;98869.03;4944805;28;20496;-75
2023/03/05 05:49:57;;;;;;;45.92;16.55;;;;;;;1.91;100.00;98867.69;4948910;28;20035;-75
2023/03/05 05:52:23;;;;;;;43.45;16.02;;;;;;;1.89;100.00;98866.13;4982312;28;20031;-75
2023/03/05 05:54:48;;;;;;;44.22;15.15;;;;;;;1.94;100.00;98879.88;4946846;28;20540;-75
2023/03/05 05:57:14;;;;;;;42.85;15.82;;;;;;;1.86;100.00;98869.94;4947935;28;20496;-75
2023/03/05 05:59:39;;;;;;;48.20;15.90;;;;;;;1.93;100.00;98889.69;4946392;29;20549;-75
2023/03/05 06:02:06;;;;;;;42.92;15.95;;;;;;;1.93;100.00;98892.34;4934681;29;20034;-75
2023/03/05 06:04:32;;;;;;;41.47;15.20;;;;;;;2.01;100.00;98872.13;4946107;28;20031;-75
2023/03/05 06:06:58;;;;;;;36.78;15.75;;;;;;;2.02;100.00;98879.13;4953845;28;20054;-75
2023/03/05 06:09:24;;;;;;;40.50;16.25;;;;;;;1.88;100.00;98877.78;4945675;29;20378;-75
2023/03/05 06:11:49;;;;;;;35.75;15.13;;;;;;;1.91;100.00;98880.16;4947542;29;20027;-75
2023/03/05 06:14:14;;;;;;;43.63;16.55;;;;;;;1.88;100.00;98880.44;4951367;29;20036;-74
2023/03/05 06:16:40;;;;;;;40.28;16.92;;;;;;;1.74;100.00;98866.59;4956110;28;20535;-75
2023/03/05 06:19:05;;;;;;;41.28;15.73;;;;;;;1.78;100.00;98888.47;4936117;29;20035;-75
2023/03/05 06:21:31;;;;;;;49.80;21.10;;;;;;;1.69;100.00;98879.53;4949558;28;20035;-75
2023/03/05 06:23:57;;;;;;;53.47;19.30;;;;;;;1.55;100.00;98877.34;4940289;29;20031;-75
2023/03/05 06:26:23;;;;;;;48.97;19.58;;;;;;;1.51;100.00;98884.75;4961046;28;20031;-75
2023/03/05 06:28:49;;;;;;;51.17;18.77;;;;;;;1.56;100.00;98886.16;4969889;28;20036;-75
2023/03/05 06:31:18;;;;;;;50.50;19.45;;;;;;;1.61;100.00;98883.91;4945745;28;20023;-75
2023/03/05 06:33:44;;;;;;;50.97;17.77;;;;;;;1.61;100.00;98868.75;4998920;28;20054;-75
2023/03/05 06:36:11;;;;;;;42.90;16.85;;;;;;;1.70;100.00;98881.22;4965850;28;20097;-75
2023/03/05 06:38:37;;;;;;;50.63;18.00;;;;;;;1.81;100.00;98874.00;4944622;28;20035;-75
2023/03/05 06:41:05;;;;;;;46.47;17.45;;;;;;;1.80;100.00;98867.00;4949715;28;20035;-75
2023/03/05 06:43:32;;;;;;;53.83;19.55;;;;;;;1.82;100.00;98868.53;4946490;28;20023;-75
2023/03/05 06:46:11;;;;;;;49.85;17.98;;;;;;;1.82;100.00;98863.22;4950757;29;20031;-75
2023/03/05 06:48:36;;;;;;;50.72;17.75;;;;;;;1.86;100.00;98864.59;4944237;29;20090;-75
2023/03/05 06:51:02;;;;;;;49.22;16.35;;;;;;;1.91;100.00;98873.00;4940581;28;20035;-75
2023/03/05 06:53:27;;;;;;;48.15;18.02;;;;;;;1.75;100.00;98846.09;4956636;28;20050;-75
2023/03/05 06:55:53;;;;;;;52.40;18.20;;;;;;;1.83;100.00;98870.22;4968371;28;20031;-75
2023/03/05 06:58:19;;;;;;;44.53;17.75;;;;;;;1.91;100.00;98867.69;4958158;28;20112;-75
2023/03/05 07:00:45;;;;;;;40.67;16.00;;;;;;;2.01;100.00;98872.13;4961503;28;20481;-75
2023/03/05 07:03:11;;;;;;;37.58;13.52;;;;;;;1.91;100.00;98867.69;4947646;28;20082;-75
2023/03/05 07:05:40;;;;;;;41.08;13.32;;;;;;;1.85;100.00;98862.91;4948913;28;20027;-75
2023/03/05 07:08:06;;;;;;;;;;;;;;;1.89;100.00;98868.81;4953100;28;20050;-75
2023/03/05 07:10:31;;;;;;;44.10;14.60;;;;;;;1.74;100.00;98861.25;4950350;28;19973;-75
2023/03/05 07:12:57;;;;;;;45.35;15.43;;;;;;;1.85;100.00;98872.75;4949017;28;20027;-75
2023/03/05 07:15:23;;;;;;;33.72;13.27;;;;;;;1.78;100.00;98856.47;4936946;29;20027;-75
2023/03/05 07:17:48;;;;;;;34.53;14.40;;;;;;;1.79;100.00;98850.16;4943455;28;20382;-75
2023/03/05 07:20:14;;;;;;;35.13;14.40;;;;;;;1.90;100.00;98857.97;4965962;28;20477;-75
2023/03/05 07:22:39;;;;;;;44.38;14.52;;;;;;;1.96;100.00;98860.06;4954616;29;20047;-75
2023/03/05 07:25:05;;;;;;;35.85;12.52;;;;;;;2.05;100.00;98860.16;4953183;28;20028;-75
2023/03/05 07:27:34;;;;;;;42.47;15.43;;;;;;;1.98;100.00;98854.56;4947368;28;20501;-74
2023/03/05 07:29:59;;;;;;;41.67;15.77;;;;;;;1.94;100.00;98848.69;4954977;28;20042;-79
2023/03/05 07:32:26;;;;;;;42.03;13.75;;;;;;;2.09;100.00;98859.72;4955040;29;20024;-80
2023/03/05 07:34:51;;;;;;;40.45;13.68;;;;;;;1.96;100.00;98828.06;4974926;28;20060;-80
2023/03/05 07:37:16;;;;;;;40.00;13.35;;;;;;;2.17;100.00;98853.63;4972364;28;20051;-80
2023/03/05 07:39:42;;;;;;;39.90;13.30;;;;;;;2.24;100.00;98856.56;4965798;29;20023;-80
2023/03/05 07:42:07;;;;;;;43.65;14.27;;;;;;;2.21;100.00;98843.50;4965735;29;20023;-80
2023/03/05 07:44:32;;;;;;;40.38;13.13;;;;;;;2.28;100.00;98844.56;4975599;28;20039;-81
2023/03/05 07:47:00;;;;;;;33.00;12.25;;;;;;;2.05;100.00;98802.31;4991043;28;20087;-82
2023/03/05 07:49:27;;;;;;;31.67;12.02;;;;;;;2.31;100.00;98829.13;4961117;28;20097;-79
2023/03/05 07:51:52;;;;;;;38.70;12.95;;;;;;;2.36;100.00;98821.50;4988528;28;20031;-80
2023/03/05 07:54:18;;;;;;;37.70;13.45;;;;;;;2.36;100.00;98824.16;4976441;28;20030;-80
2023/03/05 07:56:43;;;;;;;31.70;12.93;;;;;;;2.62;100.00;98852.81;4974318;29;20022;-79
2023/03/05 07:59:12;;;;;;;34.78;12.90;;;;;;;2.67;100.00;98839.81;4980601;28;20015;-80
2023/03/05 08:01:38;;;;;;;42.40;14.40;;;;;;;2.65;100.00;98844.50;4976944;28;20028;-81
2023/03/05 08:04:05;;;;;;;38.17;13.95;;;;;;;2.75;100.00;98842.59;4986961;28;20042;-73
2023/03/05 08:06:40;;;;;;;38.70;13.90;;;;;;;2.73;100.00;98825.03;4966068;28;20066;-82
2023/03/05 08:09:08;;;;;;;39.47;14.23;;;;;;;2.96;100.00;98849.44;4985212;28;20114;-75
2023/03/05 08:11:36;;;;;;;45.35;14.82;;;;;;;2.94;100.00;98846.09;4950364;28;20036;-79
2023/03/05 08:14:03;;;;;;;40.83;15.10;;;;;;;2.96;100.00;98846.75;4975642;28;20065;-76
2023/03/05 08:16:28;;;;;;;39.42;16.08;;;;;;;2.84;100.00;98836.31;4968948;28;20051;-78
2023/03/05 08:18:56;;;;;;;41.88;15.63;;;;;;;2.79;100.00;98838.59;5025364;28;20034;-81
2023/03/05 08:21:33;;;;;;;44.40;15.43;;;;;;;2.85;100.00;98845.16;4973339;28;20118;-79
2023/03/05 08:24:28;;;;;;;42.47;15.55;;;;;;;2.95;100.00;98842.41;4977038;28;20022;-80
2023/03/05 08:26:57;;;;;;;43.30;16.17;;;;;;;2.81;100.00;98823.28;4947763;28;20071;-80
2023/03/05 08:29:24;;;;;;;40.28;15.68;;;;;;;2.97;100.00;98837.78;5041627;28;20042;-79
2023/03/05 08:31:50;;;;;;;43.70;14.57;;;;;;;3.00;100.00;98834.78;4981977;28;20093;-78
2023/03/05 08:34:18;;;;;;;34.60;14.15;;;;;;;3.05;100.00;98841.34;4968460;28;20074;-80
2023/03/05 08:37:05;;;;;;;38.83;15.13;;;;;;;3.01;100.00;98825.75;4955063;28;20035;-79
2023/03/05 08:39:30;;;;;;;41.33;15.43;;;;;;;2.88;100.00;98818.13;4965696;28;20075;-78
2023/03/05 08:41:55;;;;;;;37.75;13.77;;;;;;;3.04;100.00;98838.84;4968504;28;20027;-79
2023/03/05 08:44:21;;;;;;;46.05;14.38;;;;;;;2.84;100.00;98806.09;4971282;28;20027;-78
2023/03/05 08:46:46;;;;;;;42.92;14.70;;;;;;;2.91;100.00;98825.00;4954714;29;20146;-78
2023/03/05 08:49:11;;;;;;;38.67;14.40;;;;;;;2.73;100.00;98804.50;4977983;28;20031;-79
2023/03/05 08:51:36;;;;;;;39.58;14.60;;;;;;;2.81;100.00;98823.28;4952551;29;20081;-80
2023/03/05 08:54:05;;;;;;;42.65;15.00;;;;;;;2.77;100.00;98816.53;4966298;28;20279;-78
2023/03/05 08:56:31;;;;;;;43.83;15.15;;;;;;;2.82;100.00;98829.44;4938399;29;20043;-80
2023/03/05 08:59:11;;;;;;;33.63;13.23;;;;;;;2.68;100.00;98797.94;4951018;29;20035;-79
2023/03/05 09:01:37;;;;;;;32.28;10.75;;;;;;;2.84;100.00;98814.09;4951291;28;20126;-80
2023/03/05 09:04:02;;;;;;;33.60;11.55;;;;;;;2.86;100.00;98822.81;4948607;28;20071;-78
2023/03/05 09:06:28;;;;;;;33.60;12.18;;;;;;;2.74;100.00;98795.47;4949217;28;20027;-77
2023/03/05 09:08:54;;;;;;;31.83;11.27;;;;;;;2.78;100.00;98815.56;4957873;28;20034;-78
2023/03/05 09:11:19;;;;;;;31.02;11.73;;;;;;;2.82;100.00;98821.44;4948299;29;20019;-79
2023/03/05 09:13:44;;;;;;;29.95;11.63;;;;;;;2.79;100.00;98819.06;4968689;28;20031;-74
2023/03/05 09:16:13;;;;;;;40.10;12.60;;;;;;;2.87;100.00;98812.97;4963516;28;20027;-76
2023/03/05 09:18:40;;;;;;;35.67;12.45;;;;;;;2.89;100.00;98814.47;4951210;28;20141;-76
2023/03/05 09:21:07;;;;;;;33.30;12.50;;;;;;;3.04;100.00;98815.63;4945433;28;20110;-75
2023/03/05 09:23:33;;;;;;;37.22;11.90;;;;;;;3.06;100.00;98799.41;4942488;28;20098;-75
2023/03/05 09:25:58;;;;;;;31.33;12.02;;;;;;;3.02;100.00;98798.88;5016538;28;20058;-76
2023/03/05 09:28:24;;;;;;;34.15;11.40;;;;;;;2.98;100.00;98797.50;4948059;28;20030;-75
2023/03/05 09:30:49;;;;;;;32.03;11.23;;;;;;;3.16;100.00;98788.63;4963819;28;20069;-75
2023/03/05 09:33:14;;;;;;;32.67;11.82;;;;;;;3.13;100.00;98789.78;4960027;28;20032;-75
2023/03/05 09:35:39;;;;;;;30.95;12.43;;;;;;;3.22;100.00;98794.19;4949952;28;20505;-77
2023/03/05 09:38:05;;;;;;;37.47;12.95;;;;;;;3.18;100.00;98798.16;4959036;28;20390;-75
2023/03/05 09:40:40;;;;;;;34.13;12.77;;;;;;;3.15;100.00;98798.47;4950537;28;20106;-78
2023/03/05 09:43:29;;;;;;;30.98;12.10;;;;;;;3.23;100.00;98789.69;4952071;28;20481;-74
2023/03/05 09:46:43;;;;;;;26.77;10.15;;;;;;;3.46;100.00;98785.50;4964326;28;20034;-73
2023/03/05 09:49:14;;;;;;;34.40;11.85;;;;;;;3.40;100.00;98791.44;4988992;28;20029;-73
2023/03/05 09:51:41;;;;;;;40.42;12.73;;;;;;;3.46;100.00;98788.16;4941450;28;20035;-74
2023/03/05 09:54:16;;;;;;;33.28;12.93;;;;;;;3.62;100.00;98787.41;4945863;29;20118;-75
2023/03/05 09:56:50;;;;;;;34.53;12.38;;;;;;;3.39;100.00;98778.25;4950997;29;20085;-74
2023/03/05 09:59:30;;;;;;;32.05;12.07;;;;;;;3.47;100.00;98791.66;4949914;28;20103;-75
2023/03/05 10:02:00;;;;;;;36.42;12.68;;;;;;;3.36;100.00;98778.56;4945002;29;20400;-74
2023/03/05 10:04:42;;;;;;;33.35;11.57;;;;;;;3.21;100.00;98767.59;4939529;28;20027;-74
2023/03/05 10:07:15;;;;;;;30.35;12.20;;;;;;;3.36;100.00;98783.94;4949633;28;20042;-74
2023/03/05 10:09:49;;;;;;;31.77;11.70;;;;;;;3.21;100.00;98778.31;4941140;28;20023;-74
2023/03/05 10:12:26;;;;;;;28.42;11.27;;;;;;;3.38;100.00;98785.44;4941365;29;20037;-75
2023/03/05 10:14:53;;;;;;;31.75;12.23;;;;;;;3.45;100.00;98789.13;4950747;28;20031;-75
2023/03/05 10:17:49;;;;;;;35.85;12.30;;;;;;;3.55;100.00;98783.69;4938914;28;20027;-75
2023/03/05 10:20:20;;;;;;;29.45;11.00;;;;;;;3.47;100.00;98786.31;4950193;28;20051;-74
2023/03/05 10:22:45;;;;;;;28.20;11.95;;;;;;;3.59;100.00;98779.72;4945118;28;20023;-75
2023/03/05 10:25:46;;;;;;;31.17;11.48;;;;;;;3.78;100.00;98783.13;4931265;28;20023;-74
2023/03/05 10:28:20;;;;;;;28.05;11.40;;;;;;;3.86;100.00;98765.28;4946443;28;20369;-75
2023/03/05 10:30:53;;;;;;;24.08;10.35;;;;;;;4.07;100.00;98770.19;4945180;29;20032;-75
2023/03/05 10:33:35;;;;;;;27.48;10.35;;;;;;;4.23;100.00;98765.88;4934358;29;20023;-75
2023/03/05 10:36:14;;;;;;;31.25;11.48;;;;;;;4.46;100.00;98760.75;4950623;29;20515;-74
2023/03/05 10:38:58;;;;;;;32.42;10.98;;;;;;;4.88;100.00;98763.28;4945056;28;20085;-74
2023/03/05 10:41:24;;;;;;;32.00;11.20;;;;;;;5.04;100.00;98757.91;4973789;28;20036;-75
2023/03/05 10:44:15;;;;;;;27.35;11.70;;;;;;;5.41;100.00;98755.66;4981794;28;20027;-74
2023/03/05 10:46:41;;;;;;;26.42;10.98;;;;;;;5.78;100.00;98733.56;4955825;29;20274;-75
2023/03/05 10:49:21;;;;;;;27.02;10.63;;;;;;;6.04;100.00;98745.91;4950574;28;20066;-74
2023/03/05 10:51:52;;;;;;;26.75;11.05;;;;;;;6.32;100.00;98724.75;4955045;28;20043;-74
2023/03/05 10:54:28;;;;;;;26.27;10.38;;;;;;;6.54;100.00;98723.06;4936333;29;20023;-75
2023/03/05 10:57:25;;;;;;;32.05;10.60;;;;;;;6.52;100.00;98743.91;4950645;28;20027;-75
2023/03/05 11:00:05;;;;;;;27.15;11.30;;;;;;;6.46;100.00;98739.25;4953776;28;20059;-74
2023/03/05 11:02:32;;;;;;;25.88;10.27;;;;;;;6.75;100.00;98728.63;5013911;28;20012;-75
2023/03/05 11:04:58;;;;;;;26.90;11.27;;;;;;;6.82;100.00;98728.75;4950840;29;20027;-74
2023/03/05 11:07:23;;;;;;;27.45;10.75;;;;;;;7.06;100.00;98730.38;4945322;28;20027;-75
2023/03/05 11:10:05;;;;;;;23.15;11.18;;;;;;;6.98;100.00;98714.31;4980657;28;20126;-74
2023/03/05 11:12:35;;;;;;;30.30;12.10;;;;;;;7.00;100.00;98721.19;4943407;29;20035;-75
2023/03/05 11:15:12;;;;;;;27.20;11.57;;;;;;;6.82;100.00;98707.22;4953709;28;20023;-75
2023/03/05 11:17:43;;;;;;;30.08;11.73;;;;;;;6.98;100.00;98708.94;4942906;28;20030;-74
2023/03/05 11:20:27;;;;;;;25.02;11.70;;;;;;;6.92;100.00;98698.91;4945977;29;20061;-75